createdAt,value
2017-10-17T00:02:15.574Z,21.61
2017-10-17T00:04:51.217Z,21.60
2017-10-17T00:07:24.943Z,21.59
2017-10-17T00:09:56.655Z,21.58
2017-10-17T00:12:24.018Z,21.56
2017-10-17T00:14:58.652Z,21.56
2017-10-17T00:17:27.011Z,21.55
2017-10-17T00:20:08.596Z,21.54
2017-10-17T00:22:37.215Z,21.52
2017-10-17T00:25:05.266Z,21.51
2017-10-17T00:27:34.120Z,21.50
2017-10-17T00:30:10.514Z,21.50
2017-10-17T00:32:43.639Z,21.48
2017-10-17T00:35:17.097Z,21.47
2017-10-17T00:37:45.320Z,21.46
2017-10-17T00:40:13.834Z,21.46
2017-10-17T00:52:57.213Z,21.42
2017-10-17T00:55:26.968Z,21.41
2017-10-17T00:57:54.355Z,21.40
2017-10-17T01:00:22.942Z,21.39
2017-10-17T01:02:51.099Z,21.45
2017-10-17T01:05:18.516Z,21.54
2017-10-17T01:07:49.025Z,21.57
2017-10-17T01:10:16.999Z,21.54
2017-10-17T03:59:10.317Z,20.85
2017-10-17T04:01:37.940Z,20.87
2017-10-17T04:04:06.120Z,20.90
2017-10-17T04:06:45.323Z,20.91
2017-10-17T04:09:15.115Z,20.94
2017-10-17T04:14:23.219Z,21.01
2017-10-17T04:19:24.794Z,21.07
2017-10-17T04:21:56.738Z,21.10
2017-10-17T04:24:24.187Z,21.12
2017-10-17T04:26:56.480Z,21.15
2017-10-17T04:29:27.308Z,21.16
2017-10-17T04:31:59.930Z,21.18
2017-10-17T04:37:06.520Z,21.23
2017-10-17T04:39:59.069Z,21.26
2017-10-17T09:35:36.617Z,23.89
2017-10-17T09:38:36.239Z,24.03
2017-10-17T11:08:14.401Z,25.08
2017-10-17T12:27:00.531Z,24.96
2017-10-17T16:39:29.521Z,25.12
2017-10-17T16:45:05.246Z,25.09
2017-10-17T16:47:32.581Z,25.06
2017-10-17T16:50:03.262Z,25.05
2017-10-17T16:52:34.248Z,25.07
2017-10-17T17:14:37.853Z,25.00
2017-10-17T17:17:05.144Z,25.00
2017-10-17T17:19:34.503Z,24.99
2017-10-17T17:22:04.120Z,25.00
2017-10-17T17:45:19.917Z,24.76
2017-10-17T17:50:52.110Z,24.67
2017-10-17T17:53:19.415Z,24.63
2017-10-17T17:55:46.817Z,24.60
2017-10-17T17:58:17.144Z,24.54
2017-10-17T18:00:44.480Z,24.50
2017-10-17T18:21:31.502Z,24.23
2017-10-17T18:24:00.880Z,24.19
2017-10-17T18:26:29.250Z,24.16
2017-10-17T18:29:01.040Z,24.14
2017-10-17T18:31:28.276Z,24.11
2017-10-17T18:36:33.834Z,24.04
2017-10-17T18:39:02.429Z,24.02
2017-10-17T18:59:24.262Z,23.81
2017-10-17T19:01:51.509Z,23.79
2017-10-17T19:04:20.498Z,23.77
2017-10-17T19:06:47.790Z,23.76
2017-10-17T19:09:15.079Z,23.74
2017-10-17T19:11:42.382Z,23.72
2017-10-17T19:14:09.723Z,23.72
2017-10-17T19:16:37.022Z,23.72
2017-10-17T19:19:04.343Z,23.73
2017-10-17T19:21:31.630Z,23.74
2017-10-17T19:23:59.828Z,23.75
2017-10-17T19:26:27.170Z,23.75
2017-10-17T19:28:54.698Z,23.76
2017-10-17T19:31:24.238Z,23.76
2017-10-17T19:33:51.839Z,23.77
2017-10-17T19:36:19.751Z,23.76
2017-10-17T19:38:47.825Z,23.77
2017-10-17T19:41:15.105Z,23.75
2017-10-17T19:43:43.772Z,23.76
2017-10-17T19:46:14.037Z,23.75
2017-10-17T19:48:43.495Z,23.75
2017-10-17T19:59:20.072Z,23.63
2017-10-17T20:01:50.498Z,23.59
2017-10-17T20:07:21.359Z,23.51
2017-10-17T20:09:49.788Z,23.47
2017-10-17T20:31:22.104Z,23.20
2017-10-17T20:33:49.549Z,23.17
2017-10-17T20:36:22.497Z,23.14
2017-10-17T20:38:49.845Z,23.12
2017-10-17T20:41:18.613Z,23.09
2017-10-17T20:43:47.050Z,23.06
2017-10-17T20:46:14.826Z,23.03
2017-10-17T20:48:42.317Z,23.00
2017-10-17T20:51:12.717Z,22.98
2017-10-17T20:53:45.965Z,22.96
2017-10-17T20:56:13.356Z,22.93
2017-10-17T20:58:46.946Z,22.92
2017-10-17T21:01:14.172Z,22.89
2017-10-17T21:03:41.429Z,22.87
2017-10-17T21:06:08.602Z,22.85
2017-10-17T21:08:36.868Z,22.83
2017-10-17T21:11:04.054Z,22.80
2017-10-17T21:13:31.309Z,22.78
2017-10-17T21:15:58.484Z,22.77
2017-10-17T21:18:25.703Z,22.74
2017-10-17T21:21:05.374Z,22.75
2017-10-17T21:23:32.680Z,22.72
2017-10-17T21:29:10.806Z,22.68
2017-10-17T21:31:39.102Z,22.66
2017-10-17T21:34:06.488Z,22.65
2017-10-17T21:36:33.747Z,22.63
2017-10-17T21:48:46.891Z,22.57
2017-10-17T21:51:14.201Z,22.56
2017-10-17T21:53:41.592Z,22.56
2017-10-17T21:56:09.643Z,22.55
2017-10-17T21:58:37.212Z,22.49
2017-10-17T22:01:04.458Z,22.52
2017-10-17T22:03:31.684Z,22.50
2017-10-17T22:05:59.060Z,22.49
2017-10-17T22:08:30.791Z,22.47
2017-10-17T22:10:58.933Z,22.46
2017-10-17T22:13:26.267Z,22.44
2017-10-17T22:15:53.586Z,22.44
2017-10-17T22:18:20.887Z,22.42
2017-10-17T22:20:48.755Z,22.41
2017-10-17T22:23:16.748Z,22.40
2017-10-17T22:25:44.074Z,22.39
2017-10-17T22:28:11.326Z,22.36
2017-10-17T22:30:38.595Z,22.36
2017-10-17T22:33:06.360Z,22.35
2017-10-17T22:35:33.741Z,22.34
2017-10-17T22:41:04.404Z,22.32
2017-10-17T22:49:11.195Z,22.26
2017-10-17T22:51:38.461Z,22.26
2017-10-17T23:00:12.700Z,22.22
2017-10-17T23:02:41.100Z,22.20
2017-10-17T23:05:08.850Z,22.18
2017-10-17T23:07:36.188Z,22.17
2017-10-17T23:10:03.454Z,22.16
2017-10-17T23:12:31.565Z,22.16
2017-10-17T23:14:58.889Z,22.13
2017-10-17T23:17:26.170Z,22.13
2017-10-17T23:19:58.290Z,22.11
2017-10-17T23:22:27.616Z,22.10
2017-10-17T23:24:54.851Z,22.08
2017-10-17T23:27:22.988Z,22.07
2017-10-17T23:29:50.269Z,22.05
2017-10-17T23:32:18.243Z,22.06
2017-10-17T23:34:46.150Z,22.04
2017-10-17T23:37:13.602Z,22.02
2017-10-17T23:39:44.560Z,22.01
2017-10-17T23:42:16.193Z,22.00
2017-10-17T23:44:44.551Z,22.00
2017-10-17T23:47:11.828Z,21.96
2017-10-17T23:49:39.259Z,21.95
2017-10-17T23:52:06.612Z,21.94
2017-10-17T23:54:39.099Z,21.92
2017-10-17T23:57:06.464Z,21.92
2017-10-17T23:59:33.765Z,21.91
